sensor_id;sensor_type;location;lat;lon;timestamp;P1;durP1;ratioP1;P2;durP2;ratioP2
16246;SDS011;8231;50.866;7.944;2023-05-08T00:00:58;18.48;;;16.88;;
16246;SDS011;8231;50.866;7.944;2023-05-08T00:03:27;18.98;;;17.13;;
16246;SDS011;8231;50.866;7.944;2023-05-08T00:05:55;19.95;;;17.85;;
16246;SDS011;8231;50.866;7.944;2023-05-08T00:08:24;18.80;;;17.00;;
16246;SDS011;8231;50.866;7.944;2023-05-08T00:10:52;20.75;;;18.58;;
16246;SDS011;8231;50.866;7.944;2023-05-08T00:13:20;20.25;;;18.38;;
16246;SDS011;8231;50.866;7.944;2023-05-08T00:15:50;20.70;;;18.63;;
16246;SDS011;8231;50.866;7.944;2023-05-08T00:18:19;20.70;;;18.42;;
16246;SDS011;8231;50.866;7.944;2023-05-08T00:20:47;20.60;;;18.13;;
16246;SDS011;8231;50.866;7.944;2023-05-08T00:23:16;17.67;;;15.77;;
16246;SDS011;8231;50.866;7.944;2023-05-08T00:25:44;17.85;;;16.25;;
16246;SDS011;8231;50.866;7.944;2023-05-08T00:28:15;20.23;;;18.23;;
16246;SDS011;8231;50.866;7.944;2023-05-08T00:30:44;20.80;;;18.70;;
16246;SDS011;8231;50.866;7.944;2023-05-08T00:33:12;20.77;;;18.88;;
16246;SDS011;8231;50.866;7.944;2023-05-08T00:35:42;20.42;;;18.52;;
16246;SDS011;8231;50.866;7.944;2023-05-08T00:38:10;19.65;;;17.75;;
16246;SDS011;8231;50.866;7.944;2023-05-08T00:40:39;18.50;;;16.88;;
16246;SDS011;8231;50.866;7.944;2023-05-08T00:43:08;20.55;;;18.38;;
16246;SDS011;8231;50.866;7.944;2023-05-08T00:45:38;20.65;;;18.58;;
16246;SDS011;8231;50.866;7.944;2023-05-08T00:48:07;19.88;;;17.95;;
16246;SDS011;8231;50.866;7.944;2023-05-08T00:50:35;19.48;;;17.58;;
16246;SDS011;8231;50.866;7.944;2023-05-08T00:53:05;18.83;;;17.08;;
16246;SDS011;8231;50.866;7.944;2023-05-08T00:55:33;18.42;;;16.73;;
16246;SDS011;8231;50.866;7.944;2023-05-08T00:58:01;18.85;;;17.15;;
16246;SDS011;8231;50.866;7.944;2023-05-08T01:00:30;17.95;;;16.35;;
16246;SDS011;8231;50.866;7.944;2023-05-08T01:02:59;19.63;;;17.92;;
16246;SDS011;8231;50.866;7.944;2023-05-08T01:05:27;18.88;;;17.10;;
16246;SDS011;8231;50.866;7.944;2023-05-08T01:07:56;18.58;;;17.00;;
16246;SDS011;8231;50.866;7.944;2023-05-08T01:10:28;19.85;;;18.10;;
16246;SDS011;8231;50.866;7.944;2023-05-08T01:13:04;19.05;;;17.35;;
16246;SDS011;8231;50.866;7.944;2023-05-08T01:15:42;20.35;;;18.33;;
16246;SDS011;8231;50.866;7.944;2023-05-08T01:18:18;19.98;;;18.17;;
16246;SDS011;8231;50.866;7.944;2023-05-08T01:20:55;20.83;;;19.00;;
16246;SDS011;8231;50.866;7.944;2023-05-08T01:23:37;21.90;;;19.67;;
16246;SDS011;8231;50.866;7.944;2023-05-08T01:29:42;22.55;;;20.33;;
16246;SDS011;8231;50.866;7.944;2023-05-08T01:32:27;22.63;;;20.48;;
16246;SDS011;8231;50.866;7.944;2023-05-08T01:34:59;22.92;;;20.77;;
16246;SDS011;8231;50.866;7.944;2023-05-08T01:37:35;22.17;;;20.17;;
16246;SDS011;8231;50.866;7.944;2023-05-08T01:40:10;21.40;;;18.92;;
16246;SDS011;8231;50.866;7.944;2023-05-08T01:42:56;22.48;;;20.27;;
16246;SDS011;8231;50.866;7.944;2023-05-08T01:45:37;21.52;;;19.40;;
16246;SDS011;8231;50.866;7.944;2023-05-08T01:48:09;20.52;;;18.73;;
16246;SDS011;8231;50.866;7.944;2023-05-08T01:50:41;22.30;;;20.13;;
16246;SDS011;8231;50.866;7.944;2023-05-08T01:53:15;21.30;;;19.27;;
16246;SDS011;8231;50.866;7.944;2023-05-08T01:55:48;26.42;;;18.73;;
16246;SDS011;8231;50.866;7.944;2023-05-08T01:58:20;24.20;;;21.67;;
16246;SDS011;8231;50.866;7.944;2023-05-08T02:00:50;20.83;;;18.92;;
16246;SDS011;8231;50.866;7.944;2023-05-08T02:03:21;24.13;;;21.60;;
16246;SDS011;8231;50.866;7.944;2023-05-08T02:05:50;23.92;;;21.33;;
16246;SDS011;8231;50.866;7.944;2023-05-08T02:08:21;22.25;;;20.15;;
16246;SDS011;8231;50.866;7.944;2023-05-08T02:10:53;22.35;;;20.42;;
16246;SDS011;8231;50.866;7.944;2023-05-08T02:13:22;22.48;;;20.48;;
16246;SDS011;8231;50.866;7.944;2023-05-08T02:15:52;25.33;;;23.02;;
16246;SDS011;8231;50.866;7.944;2023-05-08T02:18:24;24.13;;;22.00;;
16246;SDS011;8231;50.866;7.944;2023-05-08T02:20:54;23.25;;;21.13;;
16246;SDS011;8231;50.866;7.944;2023-05-08T02:23:26;24.83;;;22.58;;
16246;SDS011;8231;50.866;7.944;2023-05-08T02:25:55;23.50;;;21.30;;
16246;SDS011;8231;50.866;7.944;2023-05-08T02:28:24;24.75;;;22.30;;
16246;SDS011;8231;50.866;7.944;2023-05-08T02:30:57;23.13;;;20.80;;
16246;SDS011;8231;50.866;7.944;2023-05-08T02:33:28;24.20;;;21.75;;
16246;SDS011;8231;50.866;7.944;2023-05-08T02:35:57;23.13;;;20.95;;
16246;SDS011;8231;50.866;7.944;2023-05-08T02:38:26;23.42;;;21.13;;
16246;SDS011;8231;50.866;7.944;2023-05-08T02:40:57;23.40;;;21.20;;
16246;SDS011;8231;50.866;7.944;2023-05-08T02:43:28;23.63;;;21.27;;
16246;SDS011;8231;50.866;7.944;2023-05-08T02:45:58;24.00;;;21.88;;
16246;SDS011;8231;50.866;7.944;2023-05-08T02:48:35;23.95;;;21.75;;
16246;SDS011;8231;50.866;7.944;2023-05-08T02:51:09;23.55;;;21.33;;
16246;SDS011;8231;50.866;7.944;2023-05-08T02:53:47;23.80;;;21.60;;
16246;SDS011;8231;50.866;7.944;2023-05-08T02:56:24;25.67;;;22.52;;
16246;SDS011;8231;50.866;7.944;2023-05-08T02:59:00;25.73;;;23.25;;
16246;SDS011;8231;50.866;7.944;2023-05-08T03:01:41;24.83;;;22.27;;
16246;SDS011;8231;50.866;7.944;2023-05-08T03:04:18;26.60;;;23.85;;
16246;SDS011;8231;50.866;7.944;2023-05-08T03:06:52;23.23;;;21.17;;
16246;SDS011;8231;50.866;7.944;2023-05-08T03:09:23;25.10;;;22.73;;
16246;SDS011;8231;50.866;7.944;2023-05-08T03:12:00;26.63;;;24.00;;
16246;SDS011;8231;50.866;7.944;2023-05-08T03:14:31;25.48;;;23.17;;
16246;SDS011;8231;50.866;7.944;2023-05-08T03:17:06;24.40;;;22.13;;
16246;SDS011;8231;50.866;7.944;2023-05-08T03:19:38;24.45;;;22.15;;
16246;SDS011;8231;50.866;7.944;2023-05-08T03:22:08;26.45;;;24.05;;
16246;SDS011;8231;50.866;7.944;2023-05-08T03:24:38;26.45;;;23.83;;
16246;SDS011;8231;50.866;7.944;2023-05-08T03:27:09;27.67;;;25.10;;
16246;SDS011;8231;50.866;7.944;2023-05-08T03:29:40;25.17;;;22.88;;
16246;SDS011;8231;50.866;7.944;2023-05-08T03:32:10;25.02;;;22.58;;
16246;SDS011;8231;50.866;7.944;2023-05-08T03:34:41;26.77;;;24.10;;
16246;SDS011;8231;50.866;7.944;2023-05-08T03:37:10;22.65;;;20.13;;
16246;SDS011;8231;50.866;7.944;2023-05-08T03:39:39;20.88;;;17.60;;
16246;SDS011;8231;50.866;7.944;2023-05-08T03:42:08;25.95;;;23.15;;
16246;SDS011;8231;50.866;7.944;2023-05-08T03:44:47;21.40;;;18.67;;
16246;SDS011;8231;50.866;7.944;2023-05-08T03:47:18;22.77;;;17.00;;
16246;SDS011;8231;50.866;7.944;2023-05-08T03:49:49;25.13;;;19.75;;
16246;SDS011;8231;50.866;7.944;2023-05-08T03:52:17;20.48;;;17.75;;
16246;SDS011;8231;50.866;7.944;2023-05-08T03:54:46;24.42;;;18.42;;
16246;SDS011;8231;50.866;7.944;2023-05-08T03:57:14;25.90;;;16.80;;
16246;SDS011;8231;50.866;7.944;2023-05-08T03:59:43;20.45;;;18.35;;
16246;SDS011;8231;50.866;7.944;2023-05-08T04:02:19;18.08;;;16.27;;
16246;SDS011;8231;50.866;7.944;2023-05-08T04:04:58;19.50;;;17.45;;
16246;SDS011;8231;50.866;7.944;2023-05-08T04:35:34;27.63;;;24.95;;
16246;SDS011;8231;50.866;7.944;2023-05-08T04:38:03;24.85;;;22.65;;
16246;SDS011;8231;50.866;7.944;2023-05-08T04:40:31;23.38;;;21.13;;
16246;SDS011;8231;50.866;7.944;2023-05-08T04:43:01;20.73;;;18.88;;
16246;SDS011;8231;50.866;7.944;2023-05-08T04:45:30;23.00;;;20.80;;
16246;SDS011;8231;50.866;7.944;2023-05-08T04:47:58;22.58;;;20.30;;
16246;SDS011;8231;50.866;7.944;2023-05-08T04:50:26;21.63;;;19.63;;
16246;SDS011;8231;50.866;7.944;2023-05-08T04:52:57;22.05;;;19.85;;
16246;SDS011;8231;50.866;7.944;2023-05-08T04:55:25;23.33;;;21.23;;
16246;SDS011;8231;50.866;7.944;2023-05-08T04:57:54;23.60;;;21.35;;
16246;SDS011;8231;50.866;7.944;2023-05-08T05:00:22;24.88;;;22.35;;
16246;SDS011;8231;50.866;7.944;2023-05-08T05:02:51;22.73;;;20.63;;
16246;SDS011;8231;50.866;7.944;2023-05-08T05:05:20;23.92;;;21.73;;
16246;SDS011;8231;50.866;7.944;2023-05-08T05:07:48;24.45;;;22.05;;
16246;SDS011;8231;50.866;7.944;2023-05-08T05:10:19;23.10;;;20.98;;
16246;SDS011;8231;50.866;7.944;2023-05-08T05:12:47;22.02;;;19.88;;
16246;SDS011;8231;50.866;7.944;2023-05-08T05:15:17;22.38;;;20.27;;
16246;SDS011;8231;50.866;7.944;2023-05-08T05:17:45;22.17;;;20.00;;
16246;SDS011;8231;50.866;7.944;2023-05-08T05:20:14;20.98;;;19.10;;
16246;SDS011;8231;50.866;7.944;2023-05-08T05:22:42;21.77;;;19.67;;
16246;SDS011;8231;50.866;7.944;2023-05-08T05:25:11;21.63;;;19.50;;
16246;SDS011;8231;50.866;7.944;2023-05-08T05:27:42;24.35;;;22.02;;
16246;SDS011;8231;50.866;7.944;2023-05-08T05:30:10;21.90;;;19.63;;
16246;SDS011;8231;50.866;7.944;2023-05-08T05:32:39;22.00;;;20.02;;
16246;SDS011;8231;50.866;7.944;2023-05-08T05:35:08;21.17;;;19.13;;
16246;SDS011;8231;50.866;7.944;2023-05-08T05:37:37;20.63;;;18.70;;
16246;SDS011;8231;50.866;7.944;2023-05-08T05:40:06;20.55;;;18.60;;
16246;SDS011;8231;50.866;7.944;2023-05-08T05:42:36;19.88;;;18.08;;
16246;SDS011;8231;50.866;7.944;2023-05-08T05:45:06;21.52;;;19.42;;
16246;SDS011;8231;50.866;7.944;2023-05-08T05:47:35;21.50;;;19.42;;
16246;SDS011;8231;50.866;7.944;2023-05-08T05:50:04;21.02;;;19.13;;
16246;SDS011;8231;50.866;7.944;2023-05-08T05:52:33;25.15;;;21.85;;
16246;SDS011;8231;50.866;7.944;2023-05-08T05:55:02;23.58;;;21.23;;
16246;SDS011;8231;50.866;7.944;2023-05-08T05:57:30;20.45;;;18.52;;
16246;SDS011;8231;50.866;7.944;2023-05-08T05:59:59;20.98;;;19.08;;
16246;SDS011;8231;50.866;7.944;2023-05-08T06:02:31;21.63;;;19.27;;
16246;SDS011;8231;50.866;7.944;2023-05-08T06:05:00;18.70;;;16.80;;
16246;SDS011;8231;50.866;7.944;2023-05-08T06:07:29;19.95;;;17.92;;
16246;SDS011;8231;50.866;7.944;2023-05-08T06:09:58;18.05;;;16.30;;
16246;SDS011;8231;50.866;7.944;2023-05-08T06:12:26;18.27;;;16.67;;
16246;SDS011;8231;50.866;7.944;2023-05-08T06:14:54;18.35;;;16.50;;
16246;SDS011;8231;50.866;7.944;2023-05-08T06:17:23;18.27;;;16.63;;
16246;SDS011;8231;50.866;7.944;2023-05-08T06:19:53;20.50;;;18.70;;
16246;SDS011;8231;50.866;7.944;2023-05-08T06:22:22;21.17;;;19.17;;
16246;SDS011;8231;50.866;7.944;2023-05-08T06:24:51;22.17;;;19.98;;
16246;SDS011;8231;50.866;7.944;2023-05-08T06:27:19;20.98;;;18.90;;
16246;SDS011;8231;50.866;7.944;2023-05-08T06:29:48;17.85;;;16.25;;
16246;SDS011;8231;50.866;7.944;2023-05-08T06:32:18;18.95;;;17.25;;
16246;SDS011;8231;50.866;7.944;2023-05-08T06:34:48;18.27;;;16.55;;
16246;SDS011;8231;50.866;7.944;2023-05-08T06:37:18;17.38;;;15.88;;
16246;SDS011;8231;50.866;7.944;2023-05-08T06:39:46;17.88;;;16.35;;
16246;SDS011;8231;50.866;7.944;2023-05-08T06:42:25;17.35;;;15.80;;
16246;SDS011;8231;50.866;7.944;2023-05-08T06:44:54;19.20;;;17.38;;
16246;SDS011;8231;50.866;7.944;2023-05-08T06:47:22;19.30;;;17.40;;
16246;SDS011;8231;50.866;7.944;2023-05-08T06:49:50;19.80;;;18.00;;
16246;SDS011;8231;50.866;7.944;2023-05-08T06:52:20;19.02;;;17.10;;
16246;SDS011;8231;50.866;7.944;2023-05-08T06:54:51;19.73;;;17.88;;
16246;SDS011;8231;50.866;7.944;2023-05-08T06:57:19;20.23;;;17.63;;
16246;SDS011;8231;50.866;7.944;2023-05-08T06:59:47;18.25;;;16.48;;
16246;SDS011;8231;50.866;7.944;2023-05-08T07:02:15;19.13;;;17.33;;
16246;SDS011;8231;50.866;7.944;2023-05-08T07:04:44;18.90;;;17.20;;
16246;SDS011;8231;50.866;7.944;2023-05-08T07:07:12;18.10;;;16.52;;
16246;SDS011;8231;50.866;7.944;2023-05-08T07:09:42;19.27;;;17.38;;
16246;SDS011;8231;50.866;7.944;2023-05-08T07:12:10;18.90;;;17.05;;
16246;SDS011;8231;50.866;7.944;2023-05-08T07:14:39;18.75;;;16.85;;
16246;SDS011;8231;50.866;7.944;2023-05-08T07:17:07;17.75;;;16.13;;
16246;SDS011;8231;50.866;7.944;2023-05-08T07:19:36;17.38;;;15.88;;
16246;SDS011;8231;50.866;7.944;2023-05-08T07:22:05;17.63;;;16.02;;
16246;SDS011;8231;50.866;7.944;2023-05-08T07:24:33;18.85;;;17.08;;
16246;SDS011;8231;50.866;7.944;2023-05-08T07:27:03;26.67;;;22.90;;
16246;SDS011;8231;50.866;7.944;2023-05-08T07:29:31;20.23;;;18.25;;
16246;SDS011;8231;50.866;7.944;2023-05-08T07:32:01;17.45;;;15.70;;
16246;SDS011;8231;50.866;7.944;2023-05-08T07:34:31;16.80;;;15.40;;
16246;SDS011;8231;50.866;7.944;2023-05-08T07:37:00;16.33;;;14.82;;
16246;SDS011;8231;50.866;7.944;2023-05-08T07:39:28;16.95;;;15.15;;
16246;SDS011;8231;50.866;7.944;2023-05-08T07:41:56;16.45;;;15.05;;
16246;SDS011;8231;50.866;7.944;2023-05-08T07:44:26;15.93;;;14.63;;
16246;SDS011;8231;50.866;7.944;2023-05-08T07:47:02;14.68;;;13.38;;
16246;SDS011;8231;50.866;7.944;2023-05-08T07:49:31;14.65;;;13.25;;
16246;SDS011;8231;50.866;7.944;2023-05-08T07:51:59;13.90;;;12.80;;
16246;SDS011;8231;50.866;7.944;2023-05-08T07:54:27;14.88;;;13.57;;
16246;SDS011;8231;50.866;7.944;2023-05-08T07:56:56;17.95;;;15.32;;
16246;SDS011;8231;50.866;7.944;2023-05-08T07:59:24;15.45;;;14.00;;
16246;SDS011;8231;50.866;7.944;2023-05-08T08:01:54;16.23;;;14.90;;
16246;SDS011;8231;50.866;7.944;2023-05-08T08:04:22;15.95;;;14.55;;
16246;SDS011;8231;50.866;7.944;2023-05-08T08:06:50;15.15;;;13.95;;
16246;SDS011;8231;50.866;7.944;2023-05-08T08:09:18;16.20;;;14.80;;
16246;SDS011;8231;50.866;7.944;2023-05-08T08:11:47;17.52;;;15.88;;
16246;SDS011;8231;50.866;7.944;2023-05-08T08:14:15;16.33;;;14.82;;
16246;SDS011;8231;50.866;7.944;2023-05-08T08:16:43;16.50;;;15.00;;
16246;SDS011;8231;50.866;7.944;2023-05-08T08:19:13;17.02;;;15.48;;
16246;SDS011;8231;50.866;7.944;2023-05-08T08:21:41;17.73;;;15.50;;
16246;SDS011;8231;50.866;7.944;2023-05-08T08:24:09;17.55;;;15.85;;
16246;SDS011;8231;50.866;7.944;2023-05-08T08:26:37;17.05;;;15.35;;
16246;SDS011;8231;50.866;7.944;2023-05-08T08:29:05;16.98;;;15.48;;
16246;SDS011;8231;50.866;7.944;2023-05-08T08:31:34;17.08;;;15.57;;
16246;SDS011;8231;50.866;7.944;2023-05-08T08:34:02;17.60;;;15.85;;
16246;SDS011;8231;50.866;7.944;2023-05-08T08:36:33;16.48;;;14.82;;
16246;SDS011;8231;50.866;7.944;2023-05-08T08:39:01;16.67;;;15.27;;
16246;SDS011;8231;50.866;7.944;2023-05-08T08:41:31;18.38;;;16.83;;
16246;SDS011;8231;50.866;7.944;2023-05-08T08:43:59;16.75;;;15.30;;
16246;SDS011;8231;50.866;7.944;2023-05-08T08:46:28;16.83;;;15.23;;
16246;SDS011;8231;50.866;7.944;2023-05-08T08:48:58;18.08;;;16.48;;
16246;SDS011;8231;50.866;7.944;2023-05-08T08:51:35;17.75;;;15.35;;
16246;SDS011;8231;50.866;7.944;2023-05-08T08:54:10;15.93;;;14.48;;
16246;SDS011;8231;50.866;7.944;2023-05-08T08:56:39;15.80;;;14.40;;
16246;SDS011;8231;50.866;7.944;2023-05-08T08:59:09;18.30;;;16.60;;
16246;SDS011;8231;50.866;7.944;2023-05-08T09:01:40;15.57;;;14.07;;
16246;SDS011;8231;50.866;7.944;2023-05-08T09:04:11;17.63;;;16.13;;
16246;SDS011;8231;50.866;7.944;2023-05-08T09:06:41;16.20;;;14.68;;
16246;SDS011;8231;50.866;7.944;2023-05-08T09:09:10;17.17;;;15.63;;
16246;SDS011;8231;50.866;7.944;2023-05-08T09:11:39;15.32;;;14.00;;
16246;SDS011;8231;50.866;7.944;2023-05-08T09:14:09;14.05;;;12.85;;
16246;SDS011;8231;50.866;7.944;2023-05-08T09:16:37;13.27;;;12.10;;
16246;SDS011;8231;50.866;7.944;2023-05-08T09:19:06;14.43;;;13.23;;
16246;SDS011;8231;50.866;7.944;2023-05-08T09:21:35;13.70;;;12.40;;
16246;SDS011;8231;50.866;7.944;2023-05-08T09:24:05;13.50;;;12.30;;
16246;SDS011;8231;50.866;7.944;2023-05-08T09:26:34;13.70;;;12.40;;
16246;SDS011;8231;50.866;7.944;2023-05-08T09:29:08;13.63;;;12.15;;
16246;SDS011;8231;50.866;7.944;2023-05-08T09:31:38;14.30;;;13.10;;
16246;SDS011;8231;50.866;7.944;2023-05-08T09:34:07;14.38;;;12.98;;
16246;SDS011;8231;50.866;7.944;2023-05-08T09:36:36;15.60;;;14.23;;
16246;SDS011;8231;50.866;7.944;2023-05-08T09:39:10;14.85;;;13.45;;
16246;SDS011;8231;50.866;7.944;2023-05-08T09:41:39;13.05;;;11.85;;
16246;SDS011;8231;50.866;7.944;2023-05-08T09:44:24;14.18;;;12.88;;
16246;SDS011;8231;50.866;7.944;2023-05-08T09:46:59;13.07;;;11.95;;
16246;SDS011;8231;50.866;7.944;2023-05-08T09:49:36;13.85;;;12.65;;
16246;SDS011;8231;50.866;7.944;2023-05-08T09:52:05;14.27;;;13.02;;
16246;SDS011;8231;50.866;7.944;2023-05-08T09:54:35;13.25;;;12.13;;
16246;SDS011;8231;50.866;7.944;2023-05-08T09:57:09;12.95;;;11.80;;
16246;SDS011;8231;50.866;7.944;2023-05-08T09:59:39;11.85;;;10.85;;
16246;SDS011;8231;50.866;7.944;2023-05-08T10:02:10;12.23;;;11.23;;
16246;SDS011;8231;50.866;7.944;2023-05-08T10:04:41;12.70;;;11.52;;
16246;SDS011;8231;50.866;7.944;2023-05-08T10:07:10;11.77;;;10.88;;
16246;SDS011;8231;50.866;7.944;2023-05-08T10:09:39;12.23;;;11.23;;
16246;SDS011;8231;50.866;7.944;2023-05-08T10:12:25;12.65;;;11.55;;
16246;SDS011;8231;50.866;7.944;2023-05-08T10:14:53;12.13;;;11.13;;
16246;SDS011;8231;50.866;7.944;2023-05-08T10:17:24;12.80;;;11.52;;
16246;SDS011;8231;50.866;7.944;2023-05-08T10:19:57;11.90;;;10.90;;
16246;SDS011;8231;50.866;7.944;2023-05-08T10:22:27;12.40;;;11.38;;
16246;SDS011;8231;50.866;7.944;2023-05-08T10:24:59;12.02;;;11.13;;
16246;SDS011;8231;50.866;7.944;2023-05-08T10:27:34;11.13;;;10.23;;
16246;SDS011;8231;50.866;7.944;2023-05-08T10:30:06;13.57;;;11.05;;
16246;SDS011;8231;50.866;7.944;2023-05-08T10:32:41;12.65;;;11.55;;
16246;SDS011;8231;50.866;7.944;2023-05-08T10:35:11;12.13;;;11.13;;
16246;SDS011;8231;50.866;7.944;2023-05-08T10:37:39;11.65;;;10.45;;
16246;SDS011;8231;50.866;7.944;2023-05-08T10:40:10;12.43;;;11.23;;
16246;SDS011;8231;50.866;7.944;2023-05-08T10:42:41;12.05;;;11.02;;
16246;SDS011;8231;50.866;7.944;2023-05-08T10:45:10;12.88;;;11.88;;
16246;SDS011;8231;50.866;7.944;2023-05-08T10:47:44;11.68;;;10.55;;
16246;SDS011;8231;50.866;7.944;2023-05-08T10:50:27;11.18;;;10.00;;
16246;SDS011;8231;50.866;7.944;2023-05-08T10:53:06;10.82;;;9.82;;
16246;SDS011;8231;50.866;7.944;2023-05-08T10:55:39;11.70;;;10.57;;
16246;SDS011;8231;50.866;7.944;2023-05-08T10:58:12;10.82;;;9.85;;
16246;SDS011;8231;50.866;7.944;2023-05-08T11:03:38;11.10;;;9.95;;
16246;SDS011;8231;50.866;7.944;2023-05-08T11:06:08;11.18;;;10.23;;
16246;SDS011;8231;50.866;7.944;2023-05-08T11:11:28;10.20;;;9.20;;
16246;SDS011;8231;50.866;7.944;2023-05-08T11:14:08;11.13;;;10.23;;
16246;SDS011;8231;50.866;7.944;2023-05-08T11:19:32;10.85;;;9.95;;
16246;SDS011;8231;50.866;7.944;2023-05-08T11:22:11;11.50;;;10.52;;
16246;SDS011;8231;50.866;7.944;2023-05-08T11:24:48;11.10;;;9.85;;
16246;SDS011;8231;50.866;7.944;2023-05-08T11:27:31;11.20;;;10.15;;
16246;SDS011;8231;50.866;7.944;2023-05-08T11:30:25;9.27;;;8.57;;
16246;SDS011;8231;50.866;7.944;2023-05-08T11:35:56;11.48;;;10.38;;
16246;SDS011;8231;50.866;7.944;2023-05-08T11:38:27;9.80;;;9.00;;
16246;SDS011;8231;50.866;7.944;2023-05-08T11:41:00;10.48;;;9.50;;
16246;SDS011;8231;50.866;7.944;2023-05-08T11:46:39;10.95;;;10.07;;
16246;SDS011;8231;50.866;7.944;2023-05-08T11:49:12;9.98;;;9.18;;
16246;SDS011;8231;50.866;7.944;2023-05-08T11:51:47;9.15;;;8.45;;
16246;SDS011;8231;50.866;7.944;2023-05-08T11:54:20;9.52;;;8.82;;
16246;SDS011;8231;50.866;7.944;2023-05-08T11:56:49;10.65;;;9.65;;
16246;SDS011;8231;50.866;7.944;2023-05-08T11:59:22;9.82;;;8.77;;
16246;SDS011;8231;50.866;7.944;2023-05-08T12:01:52;8.50;;;7.85;;
16246;SDS011;8231;50.866;7.944;2023-05-08T12:04:23;9.50;;;8.65;;
16246;SDS011;8231;50.866;7.944;2023-05-08T12:06:55;10.40;;;9.38;;
16246;SDS011;8231;50.866;7.944;2023-05-08T12:09:24;9.88;;;8.88;;
16246;SDS011;8231;50.866;7.944;2023-05-08T12:11:55;9.80;;;9.07;;
16246;SDS011;8231;50.866;7.944;2023-05-08T12:14:24;11.13;;;10.20;;
16246;SDS011;8231;50.866;7.944;2023-05-08T12:16:53;9.95;;;9.10;;
16246;SDS011;8231;50.866;7.944;2023-05-08T12:19:21;9.85;;;9.00;;
16246;SDS011;8231;50.866;7.944;2023-05-08T12:21:50;10.30;;;9.50;;
16246;SDS011;8231;50.866;7.944;2023-05-08T12:24:18;9.45;;;8.65;;
16246;SDS011;8231;50.866;7.944;2023-05-08T12:26:51;9.57;;;8.88;;
16246;SDS011;8231;50.866;7.944;2023-05-08T12:29:21;10.02;;;9.23;;
16246;SDS011;8231;50.866;7.944;2023-05-08T12:31:50;9.70;;;8.90;;
16246;SDS011;8231;50.866;7.944;2023-05-08T12:34:20;10.40;;;9.60;;
16246;SDS011;8231;50.866;7.944;2023-05-08T12:37:00;9.70;;;9.00;;
16246;SDS011;8231;50.866;7.944;2023-05-08T12:39:33;10.00;;;9.20;;
16246;SDS011;8231;50.866;7.944;2023-05-08T12:42:02;9.68;;;8.80;;
16246;SDS011;8231;50.866;7.944;2023-05-08T12:44:30;9.77;;;8.90;;
16246;SDS011;8231;50.866;7.944;2023-05-08T12:46:58;9.60;;;8.70;;
16246;SDS011;8231;50.866;7.944;2023-05-08T12:49:29;9.85;;;9.05;;
16246;SDS011;8231;50.866;7.944;2023-05-08T12:52:02;9.25;;;8.43;;
16246;SDS011;8231;50.866;7.944;2023-05-08T12:54:32;8.07;;;7.30;;
16246;SDS011;8231;50.866;7.944;2023-05-08T12:57:05;7.20;;;6.60;;
16246;SDS011;8231;50.866;7.944;2023-05-08T12:59:36;7.25;;;6.70;;
16246;SDS011;8231;50.866;7.944;2023-05-08T13:02:10;7.18;;;6.60;;
16246;SDS011;8231;50.866;7.944;2023-05-08T13:04:41;7.30;;;6.57;;
16246;SDS011;8231;50.866;7.944;2023-05-08T13:07:09;7.82;;;6.50;;
16246;SDS011;8231;50.866;7.944;2023-05-08T13:09:38;7.32;;;6.63;;
16246;SDS011;8231;50.866;7.944;2023-05-08T13:12:09;6.93;;;6.22;;
16246;SDS011;8231;50.866;7.944;2023-05-08T13:14:38;5.63;;;5.22;;
16246;SDS011;8231;50.866;7.944;2023-05-08T13:17:06;5.80;;;5.40;;
16246;SDS011;8231;50.866;7.944;2023-05-08T13:19:34;6.30;;;5.40;;
16246;SDS011;8231;50.866;7.944;2023-05-08T13:22:04;6.07;;;5.57;;
16246;SDS011;8231;50.866;7.944;2023-05-08T13:24:32;6.13;;;5.57;;
16246;SDS011;8231;50.866;7.944;2023-05-08T13:27:00;6.25;;;5.75;;
16246;SDS011;8231;50.866;7.944;2023-05-08T13:29:29;6.90;;;5.75;;
16246;SDS011;8231;50.866;7.944;2023-05-08T13:31:57;6.20;;;5.78;;
16246;SDS011;8231;50.866;7.944;2023-05-08T13:34:25;7.13;;;6.53;;
16246;SDS011;8231;50.866;7.944;2023-05-08T13:36:54;7.82;;;7.20;;
16246;SDS011;8231;50.866;7.944;2023-05-08T13:39:23;8.07;;;7.47;;
16246;SDS011;8231;50.866;7.944;2023-05-08T13:41:52;8.18;;;7.47;;
16246;SDS011;8231;50.866;7.944;2023-05-08T13:44:20;8.90;;;7.47;;
16246;SDS011;8231;50.866;7.944;2023-05-08T13:46:48;8.73;;;7.90;;
16246;SDS011;8231;50.866;7.944;2023-05-08T13:49:16;7.50;;;6.90;;
16246;SDS011;8231;50.866;7.944;2023-05-08T13:51:45;7.55;;;6.80;;
16246;SDS011;8231;50.866;7.944;2023-05-08T13:54:22;7.18;;;6.57;;
16246;SDS011;8231;50.866;7.944;2023-05-08T13:56:51;8.15;;;7.45;;
16246;SDS011;8231;50.866;7.944;2023-05-08T13:59:19;7.38;;;6.65;;
16246;SDS011;8231;50.866;7.944;2023-05-08T14:01:48;7.38;;;6.68;;
16246;SDS011;8231;50.866;7.944;2023-05-08T14:04:16;7.38;;;6.70;;
16246;SDS011;8231;50.866;7.944;2023-05-08T14:06:44;6.82;;;6.22;;
16246;SDS011;8231;50.866;7.944;2023-05-08T14:09:13;7.20;;;6.70;;
16246;SDS011;8231;50.866;7.944;2023-05-08T14:11:42;6.75;;;6.20;;
16246;SDS011;8231;50.866;7.944;2023-05-08T14:14:10;7.38;;;6.65;;
16246;SDS011;8231;50.866;7.944;2023-05-08T14:16:39;7.63;;;6.95;;
16246;SDS011;8231;50.866;7.944;2023-05-08T14:19:07;7.35;;;6.65;;
16246;SDS011;8231;50.866;7.944;2023-05-08T14:21:36;6.80;;;6.13;;
16246;SDS011;8231;50.866;7.944;2023-05-08T14:24:04;6.40;;;5.80;;
16246;SDS011;8231;50.866;7.944;2023-05-08T14:26:34;5.78;;;5.28;;
16246;SDS011;8231;50.866;7.944;2023-05-08T14:29:03;5.78;;;5.38;;
16246;SDS011;8231;50.866;7.944;2023-05-08T14:31:32;5.53;;;5.13;;
16246;SDS011;8231;50.866;7.944;2023-05-08T14:34:00;5.50;;;5.00;;
16246;SDS011;8231;50.866;7.944;2023-05-08T14:36:29;6.22;;;5.75;;
16246;SDS011;8231;50.866;7.944;2023-05-08T14:38:57;5.88;;;5.40;;
16246;SDS011;8231;50.866;7.944;2023-05-08T14:41:26;6.90;;;6.00;;
16246;SDS011;8231;50.866;7.944;2023-05-08T14:43:54;5.32;;;4.82;;
16246;SDS011;8231;50.866;7.944;2023-05-08T14:46:25;4.75;;;4.43;;
16246;SDS011;8231;50.866;7.944;2023-05-08T14:48:53;4.95;;;4.55;;
16246;SDS011;8231;50.866;7.944;2023-05-08T14:51:22;6.13;;;5.63;;
16246;SDS011;8231;50.866;7.944;2023-05-08T14:53:51;5.20;;;4.70;;
16246;SDS011;8231;50.866;7.944;2023-05-08T14:56:19;5.63;;;5.22;;
16246;SDS011;8231;50.866;7.944;2023-05-08T14:58:50;5.43;;;4.95;;
16246;SDS011;8231;50.866;7.944;2023-05-08T15:01:20;5.45;;;4.93;;
16246;SDS011;8231;50.866;7.944;2023-05-08T15:03:50;5.40;;;4.63;;
16246;SDS011;8231;50.866;7.944;2023-05-08T15:06:19;5.18;;;4.70;;
16246;SDS011;8231;50.866;7.944;2023-05-08T15:08:49;4.82;;;4.47;;
16246;SDS011;8231;50.866;7.944;2023-05-08T15:11:17;5.20;;;4.63;;
16246;SDS011;8231;50.866;7.944;2023-05-08T15:13:49;5.28;;;4.88;;
16246;SDS011;8231;50.866;7.944;2023-05-08T15:16:18;5.43;;;4.88;;
16246;SDS011;8231;50.866;7.944;2023-05-08T15:18:46;5.47;;;3.90;;
16246;SDS011;8231;50.866;7.944;2023-05-08T15:21:16;5.75;;;4.75;;
16246;SDS011;8231;50.866;7.944;2023-05-08T15:23:46;5.70;;;5.20;;
16246;SDS011;8231;50.866;7.944;2023-05-08T15:26:14;6.20;;;4.68;;
16246;SDS011;8231;50.866;7.944;2023-05-08T15:28:43;5.25;;;4.75;;
16246;SDS011;8231;50.866;7.944;2023-05-08T15:31:11;4.63;;;4.22;;
16246;SDS011;8231;50.866;7.944;2023-05-08T15:33:39;6.07;;;4.78;;
16246;SDS011;8231;50.866;7.944;2023-05-08T15:36:11;5.43;;;5.03;;
16246;SDS011;8231;50.866;7.944;2023-05-08T15:38:41;5.50;;;5.00;;
16246;SDS011;8231;50.866;7.944;2023-05-08T15:41:09;4.97;;;4.60;;
16246;SDS011;8231;50.866;7.944;2023-05-08T15:43:41;5.47;;;4.97;;
16246;SDS011;8231;50.866;7.944;2023-05-08T15:46:11;4.90;;;4.57;;